Time;durP1;ratioP1;P1;durP2;ratioP2;P2;SDS_P1;SDS_P2;PMS_P1;PMS_P2;Temp;Humidity;BMP_temperature;BMP_pressure;BME280_temperature;BME280_humidity;BME280_pressure;Samples;Min_cycle;Max_cycle;Signal;HPM_P1;HPM_P2
2024/01/27 00:00:31;;;;;;;;;;;;;;;;;;5097546;28;19908;-74
2024/01/27 00:02:57;;;;;;;;;;;;;;;;;;5097556;28;20382;-73
2024/01/27 00:05:23;;;;;;;;;;;;;;;;;;5097078;28;20398;-74
2024/01/27 00:07:49;;;;;;;;;;;;;;;;;;5079190;28;20269;-73
2024/01/27 00:10:15;;;;;;;;;;;;;;;;;;5096946;28;19908;-73
2024/01/27 00:12:41;;;;;;;;;;;;;;;;;;5079102;28;19909;-73
2024/01/27 00:15:07;;;;;;;;;;;;;;;;;;5097375;28;20361;-73
2024/01/27 00:17:35;;;;;;;;;;;;;;;;;;5096694;28;19920;-73
2024/01/27 00:20:01;;;;;;;;;;;;;;;;;;5078945;28;19908;-73
2024/01/27 00:22:27;;;;;;;;;;;;;;;;;;5097098;28;19961;-73
2024/01/27 00:24:53;;;;;;;;;;;;;;;;;;5078448;28;19912;-73
2024/01/27 00:27:19;;;;;;;;;;;;;;;;;;5096977;28;19908;-74
2024/01/27 00:29:45;;;;;;;;;;;;;;;;;;5078730;28;19953;-73
2024/01/27 00:32:11;;;;;;;;;;;;;;;;;;5078309;28;19915;-73
2024/01/27 00:34:37;;;;;;;;;;;;;;;;;;5096822;28;20065;-73
2024/01/27 00:37:03;;;;;;;;;;;;;;;;;;5096783;28;20390;-73
2024/01/27 00:39:29;;;;;;;;;;;;;;;;;;5096340;28;20288;-73
2024/01/27 00:41:58;;;;;;;;;;;;;;;;;;5096911;28;20356;-73
2024/01/27 00:44:24;;;;;;;;;;;;;;;;;;5096582;28;19930;-73
2024/01/27 00:46:50;;;;;;;;;;;;;;;;;;5096322;28;19908;-72
2024/01/27 00:49:15;;;;;;;;;;;;;;;;;;5096583;28;20326;-72
2024/01/27 00:51:42;;;;;;;;;;;;;;;;;;5096229;28;20285;-72
2024/01/27 00:54:08;;;;;;;;;;;;;;;;;;5096132;28;19912;-73
2024/01/27 00:56:34;;;;;;;;;;;;;;;;;;5096479;28;19915;-73
2024/01/27 00:59:00;;;;;;;;;;;;;;;;;;5078149;28;19956;-73
2024/01/27 01:01:26;;;;;;;;;;;;;;;;;;5077813;28;19962;-74
2024/01/27 01:03:52;;;;;;;;;;;;;;;;;;5096326;28;19908;-73
2024/01/27 01:06:18;;;;;;;;;;;;;;;;;;5096274;28;19953;-74
2024/01/27 01:08:44;;;;;;;;;;;;;;;;;;5095843;28;20368;-72
2024/01/27 01:11:10;;;;;;;;;;;;;;;;;;5077962;28;19912;-72
2024/01/27 01:13:36;;;;;;;;;;;;;;;;;;5095743;28;19919;-72
2024/01/27 01:16:03;;;;;;;;;;;;;;;;;;5096039;28;19908;-74
2024/01/27 01:18:29;;;;;;;;;;;;;;;;;;5095783;28;20018;-72
2024/01/27 01:20:55;;;;;;;;;;;;;;;;;;5095519;28;19908;-72
2024/01/27 01:23:21;;;;;;;;;;;;;;;;;;5095889;28;19915;-72
2024/01/27 01:25:47;;;;;;;;;;;;;;;;;;5095848;28;19908;-72
2024/01/27 01:28:13;;;;;;;;;;;;;;;;;;5095421;28;19946;-72
2024/01/27 01:30:39;;;;;;;;;;;;;;;;;;5095704;28;19909;-73
2024/01/27 01:33:05;;;;;;;;;;;;;;;;;;5096310;28;20368;-72
2024/01/27 01:35:31;;;;;;;;;;;;;;;;;;5095288;28;20279;-73
2024/01/27 01:37:57;;;;;;;;;;;;;;;;;;5095710;28;19923;-72
2024/01/27 01:40:23;;;;;;;;;;;;;;;;;;5095524;28;20288;-72
2024/01/27 01:42:49;;;;;;;;;;;;;;;;;;5095138;28;19909;-72
2024/01/27 01:45:15;;;;;;;;;;;;;;;;;;5095422;28;19915;-72
2024/01/27 01:47:41;;;;;;;;;;;;;;;;;;5095440;28;19943;-73
2024/01/27 01:50:06;;;;;;;;;;;;;;;;;;5095030;28;19919;-72
2024/01/27 01:52:32;;;;;;;;;;;;;;;;;;5095287;28;20360;-73
2024/01/27 01:54:58;;;;;;;;;;;;;;;;;;5095416;28;20342;-73
2024/01/27 01:57:24;;;;;;;;;;;;;;;;;;5094747;28;20017;-73
2024/01/27 01:59:50;;;;;;;;;;;;;;;;;;5095131;28;19911;-73
2024/01/27 02:02:16;;;;;;;;;;;;;;;;;;5094263;28;19965;-73
2024/01/27 02:04:42;;;;;;;;;;;;;;;;;;5094705;28;19916;-73
2024/01/27 02:07:08;;;;;;;;;;;;;;;;;;5095216;28;19908;-73
2024/01/27 02:09:34;;;;;;;;;;;;;;;;;;5095050;28;20455;-73
2024/01/27 02:12:00;;;;;;;;;;;;;;;;;;5094617;28;19944;-73
2024/01/27 02:14:27;;;;;;;;;;;;;;;;;;5094989;28;19912;-73
2024/01/27 02:16:53;;;;;;;;;;;;;;;;;;5094498;28;19915;-72
2024/01/27 02:19:19;;;;;;;;;;;;;;;;;;5095027;28;20004;-73
2024/01/27 02:21:45;;;;;;;;;;;;;;;;;;5076560;28;19908;-73
2024/01/27 02:24:11;;;;;;;;;;;;;;;;;;5094453;28;19912;-73
2024/01/27 02:26:37;;;;;;;;;;;;;;;;;;5076503;28;19915;-73
2024/01/27 02:29:03;;;;;;;;;;;;;;;;;;5094648;28;20353;-73
2024/01/27 02:31:29;;;;;;;;;;;;;;;;;;5094294;28;19908;-73
2024/01/27 02:33:55;;;;;;;;;;;;;;;;;;5094583;28;19908;-73
2024/01/27 02:36:21;;;;;;;;;;;;;;;;;;5076376;28;19908;-73
2024/01/27 02:38:46;;;;;;;;;;;;;;;;;;5094027;28;19920;-73
2024/01/27 02:41:12;;;;;;;;;;;;;;;;;;5094461;28;19915;-73
2024/01/27 02:43:38;;;;;;;;;;;;;;;;;;5094635;28;19908;-73
2024/01/27 02:46:04;;;;;;;;;;;;;;;;;;5094170;28;19908;-73
2024/01/27 02:48:30;;;;;;;;;;;;;;;;;;5094286;28;19908;-73
2024/01/27 02:50:56;;;;;;;;;;;;;;;;;;5094241;28;19912;-73
2024/01/27 02:53:22;;;;;;;;;;;;;;;;;;5075777;28;19908;-73
2024/01/27 02:55:48;;;;;;;;;;;;;;;;;;5094336;28;19934;-73
2024/01/27 02:58:14;;;;;;;;;;;;;;;;;;5094307;28;19966;-73
2024/01/27 03:00:40;;;;;;;;;;;;;;;;;;5075652;28;19908;-73
2024/01/27 03:03:06;;;;;;;;;;;;;;;;;;5094281;28;19912;-73
2024/01/27 03:05:32;;;;;;;;;;;;;;;;;;5094184;28;19908;-73
2024/01/27 03:07:58;;;;;;;;;;;;;;;;;;5093695;28;19908;-73
2024/01/27 03:10:24;;;;;;;;;;;;;;;;;;5093962;28;19953;-73
2024/01/27 03:12:50;;;;;;;;;;;;;;;;;;5093809;28;20007;-73
2024/01/27 03:15:16;;;;;;;;;;;;;;;;;;5093592;28;20007;-73
2024/01/27 03:17:42;;;;;;;;;;;;;;;;;;5093608;28;19924;-73
2024/01/27 03:20:08;;;;;;;;;;;;;;;;;;5093558;28;19974;-74
2024/01/27 03:22:34;;;;;;;;;;;;;;;;;;5094387;28;19908;-73
2024/01/27 03:25:00;;;;;;;;;;;;;;;;;;5093945;28;20370;-73
2024/01/27 03:27:26;;;;;;;;;;;;;;;;;;5093553;28;20003;-72
2024/01/27 03:29:52;;;;;;;;;;;;;;;;;;5094092;28;19908;-73
2024/01/27 03:32:18;;;;;;;;;;;;;;;;;;5093797;28;20368;-73
2024/01/27 03:34:47;;;;;;;;;;;;;;;;;;5093324;28;19908;-73
2024/01/27 03:37:13;;;;;;;;;;;;;;;;;;5093707;28;19909;-73
2024/01/27 03:39:39;;;;;;;;;;;;;;;;;;5093724;28;19938;-73
2024/01/27 03:42:05;;;;;;;;;;;;;;;;;;5093343;28;19915;-73
2024/01/27 03:44:31;;;;;;;;;;;;;;;;;;5093679;28;19908;-73
2024/01/27 03:46:57;;;;;;;;;;;;;;;;;;5075595;28;19915;-73
2024/01/27 03:49:23;;;;;;;;;;;;;;;;;;5093287;28;19908;-73
2024/01/27 03:51:49;;;;;;;;;;;;;;;;;;5075483;28;19915;-73
2024/01/27 03:54:14;;;;;;;;;;;;;;;;;;5093622;28;19908;-73
2024/01/27 03:56:40;;;;;;;;;;;;;;;;;;5093201;28;19916;-73
2024/01/27 03:59:09;;;;;;;;;;;;;;;;;;5093551;28;20287;-73
2024/01/27 04:01:34;;;;;;;;;;;;;;;;;;5093519;28;19930;-73
2024/01/27 04:04:00;;;;;;;;;;;;;;;;;;5093216;28;19908;-73
2024/01/27 04:06:26;;;;;;;;;;;;;;;;;;5093437;28;20002;-73
2024/01/27 04:08:52;;;;;;;;;;;;;;;;;;5093430;28;19939;-73
2024/01/27 04:11:18;;;;;;;;;;;;;;;;;;5074969;28;19947;-74
2024/01/27 04:13:44;;;;;;;;;;;;;;;;;;5075210;28;19912;-74
2024/01/27 04:16:10;;;;;;;;;;;;;;;;;;5093474;28;20003;-73
2024/01/27 04:18:36;;;;;;;;;;;;;;;;;;5092865;28;19924;-73
2024/01/27 04:21:02;;;;;;;;;;;;;;;;;;5093345;28;19915;-73
2024/01/27 04:23:28;;;;;;;;;;;;;;;;;;5093132;28;20307;-73
2024/01/27 04:25:54;;;;;;;;;;;;;;;;;;5095339;28;19908;-73
2024/01/27 04:28:20;;;;;;;;;;;;;;;;;;5097146;28;20382;-73
2024/01/27 04:30:46;;;;;;;;;;;;;;;;;;5096586;28;20685;-73
2024/01/27 04:33:12;;;;;;;;;;;;;;;;;;5096963;28;20326;-73
2024/01/27 04:35:38;;;;;;;;;;;;;;;;;;5096814;28;19948;-74
2024/01/27 04:38:04;;;;;;;;;;;;;;;;;;5096340;28;19912;-73
2024/01/27 04:40:30;;;;;;;;;;;;;;;;;;5096704;28;20003;-73
2024/01/27 04:42:55;;;;;;;;;;;;;;;;;;5096726;28;19915;-73
2024/01/27 04:45:21;;;;;;;;;;;;;;;;;;5096289;28;19946;-73
2024/01/27 04:47:47;;;;;;;;;;;;;;;;;;5078432;28;20348;-73
2024/01/27 04:50:13;;;;;;;;;;;;;;;;;;5078307;28;19955;-73
2024/01/27 04:52:41;;;;;;;;;;;;;;;;;;5096106;28;20308;-73
2024/01/27 04:55:07;;;;;;;;;;;;;;;;;;5078251;28;20287;-73
2024/01/27 04:57:33;;;;;;;;;;;;;;;;;;5096359;28;19912;-73
2024/01/27 04:59:59;;;;;;;;;;;;;;;;;;5096306;28;20368;-73
2024/01/27 05:02:25;;;;;;;;;;;;;;;;;;5096351;28;19961;-73
2024/01/27 05:04:51;;;;;;;;;;;;;;;;;;5096894;28;20355;-73
2024/01/27 05:07:17;;;;;;;;;;;;;;;;;;5096104;28;19908;-73
2024/01/27 05:09:43;;;;;;;;;;;;;;;;;;5096272;28;19909;-73
2024/01/27 05:12:09;;;;;;;;;;;;;;;;;;5096143;28;19908;-73
2024/01/27 05:14:35;;;;;;;;;;;;;;;;;;5095721;28;19956;-73
2024/01/27 05:17:01;;;;;;;;;;;;;;;;;;5096123;28;19920;-72
2024/01/27 05:19:27;;;;;;;;;;;;;;;;;;5096186;28;19922;-72
2024/01/27 05:21:53;;;;;;;;;;;;;;;;;;5095552;28;20344;-73
2024/01/27 05:24:19;;;;;;;;;;;;;;;;;;5095913;28;20352;-73
2024/01/27 05:26:45;;;;;;;;;;;;;;;;;;5095468;28;19954;-72
2024/01/27 05:29:11;;;;;;;;;;;;;;;;;;5096031;28;19915;-73
2024/01/27 05:31:37;;;;;;;;;;;;;;;;;;5095720;28;19908;-73
2024/01/27 05:34:03;;;;;;;;;;;;;;;;;;5095284;28;19915;-73
2024/01/27 05:36:29;;;;;;;;;;;;;;;;;;5095675;28;19915;-73
2024/01/27 05:38:55;;;;;;;;;;;;;;;;;;5077398;28;19916;-73
2024/01/27 05:41:21;;;;;;;;;;;;;;;;;;5095140;28;19915;-73
2024/01/27 05:43:47;;;;;;;;;;;;;;;;;;5095613;28;19915;-73
2024/01/27 05:46:13;;;;;;;;;;;;;;;;;;5095472;28;19912;-73
2024/01/27 05:48:39;;;;;;;;;;;;;;;;;;5095032;28;19915;-72
2024/01/27 05:51:05;;;;;;;;;;;;;;;;;;5095383;28;19908;-72
2024/01/27 05:53:31;;;;;;;;;;;;;;;;;;5095548;28;19912;-73
2024/01/27 05:55:57;;;;;;;;;;;;;;;;;;5094917;28;19912;-72
2024/01/27 05:58:22;;;;;;;;;;;;;;;;;;5077018;28;20274;-72
2024/01/27 06:00:48;;;;;;;;;;;;;;;;;;5095453;28;19914;-72
2024/01/27 06:03:15;;;;;;;;;;;;;;;;;;5094758;28;19908;-72
2024/01/27 06:05:41;;;;;;;;;;;;;;;;;;5095126;28;19950;-72
2024/01/27 06:08:08;;;;;;;;;;;;;;;;;;5095259;28;19908;-72
2024/01/27 06:10:34;;;;;;;;;;;;;;;;;;5094642;28;20245;-72
2024/01/27 06:12:59;;;;;;;;;;;;;;;;;;5094920;28;20357;-72
2024/01/27 06:15:25;;;;;;;;;;;;;;;;;;5095051;28;19915;-72
2024/01/27 06:17:51;;;;;;;;;;;;;;;;;;5094243;28;19920;-72
2024/01/27 06:20:18;;;;;;;;;;;;;;;;;;5076541;28;19908;-73
2024/01/27 06:22:44;;;;;;;;;;;;;;;;;;5076707;28;19912;-73
2024/01/27 06:25:10;;;;;;;;;;;;;;;;;;5094368;28;20009;-73
2024/01/27 06:27:37;;;;;;;;;;;;;;;;;;5094836;28;20287;-73
2024/01/27 06:30:03;;;;;;;;;;;;;;;;;;5094388;28;19947;-73
2024/01/27 06:32:29;;;;;;;;;;;;;;;;;;5094926;28;19908;-73
2024/01/27 06:34:55;;;;;;;;;;;;;;;;;;5076510;28;19961;-74
2024/01/27 06:37:21;;;;;;;;;;;;;;;;;;5094147;28;19908;-72
2024/01/27 06:39:47;;;;;;;;;;;;;;;;;;5094534;28;19944;-73
2024/01/27 06:42:13;;;;;;;;;;;;;;;;;;5094421;28;19955;-72
2024/01/27 06:44:39;;;;;;;;;;;;;;;;;;5094219;28;19908;-73
2024/01/27 06:47:05;;;;;;;;;;;;;;;;;;5076185;28;19914;-72
2024/01/27 06:49:31;;;;;;;;;;;;;;;;;;5075801;28;19908;-73
2024/01/27 06:51:57;;;;;;;;;;;;;;;;;;5093902;28;20417;-73
2024/01/27 06:54:23;;;;;;;;;;;;;;;;;;5094315;28;19998;-73
2024/01/27 06:56:49;;;;;;;;;;;;;;;;;;5075462;28;19957;-73
2024/01/27 06:59:15;;;;;;;;;;;;;;;;;;5093495;28;19920;-73
2024/01/27 07:01:41;;;;;;;;;;;;;;;;;;5076027;28;19908;-73
2024/01/27 07:04:07;;;;;;;;;;;;;;;;;;5094124;28;19995;-73
2024/01/27 07:06:33;;;;;;;;;;;;;;;;;;5093744;28;19908;-73
2024/01/27 07:08:59;;;;;;;;;;;;;;;;;;5094029;28;19908;-72
2024/01/27 07:11:25;;;;;;;;;;;;;;;;;;5094258;28;19947;-73
2024/01/27 07:13:50;;;;;;;;;;;;;;;;;;5093643;28;19908;-72
2024/01/27 07:16:16;;;;;;;;;;;;;;;;;;5094478;28;19918;-72
2024/01/27 07:18:42;;;;;;;;;;;;;;;;;;5093770;28;20380;-73
2024/01/27 07:21:08;;;;;;;;;;;;;;;;;;5093641;28;19908;-73
2024/01/27 07:23:35;;;;;;;;;;;;;;;;;;5093848;28;20003;-74
2024/01/27 07:26:03;;;;;;;;;;;;;;;;;;5075871;28;19958;-74
2024/01/27 07:28:29;;;;;;;;;;;;;;;;;;5093476;28;20015;-74
2024/01/27 07:30:55;;;;;;;;;;;;;;;;;;5094005;28;19999;-74
2024/01/27 07:33:21;;;;;;;;;;;;;;;;;;5093408;28;19908;-74
2024/01/27 07:35:46;;;;;;;;;;;;;;;;;;5093827;28;19970;-74
2024/01/27 07:38:12;;;;;;;;;;;;;;;;;;5093977;28;19916;-73
2024/01/27 07:40:38;;;;;;;;;;;;;;;;;;5093369;28;19934;-74
2024/01/27 07:43:04;;;;;;;;;;;;;;;;;;5093906;28;19908;-74
2024/01/27 07:45:30;;;;;;;;;;;;;;;;;;5075644;28;19915;-74
2024/01/27 07:47:56;;;;;;;;;;;;;;;;;;5093281;28;19912;-73
2024/01/27 07:50:23;;;;;;;;;;;;;;;;;;5093691;28;19908;-74
2024/01/27 07:52:49;;;;;;;;;;;;;;;;;;5093660;28;20382;-74
2024/01/27 07:55:15;;;;;;;;;;;;;;;;;;5075163;28;19999;-74
2024/01/27 07:57:41;;;;;;;;;;;;;;;;;;5075427;28;20276;-74
2024/01/27 08:00:07;;;;;;;;;;;;;;;;;;5094485;28;19919;-74
2024/01/27 08:02:33;;;;;;;;;;;;;;;;;;5097113;28;19909;-73
2024/01/27 08:04:59;;;;;;;;;;;;;;;;;;5097792;28;19915;-72
2024/01/27 08:07:25;;;;;;;;;;;;;;;;;;5079184;28;19909;-73
2024/01/27 08:09:51;;;;;;;;;;;;;;;;;;5097044;28;20002;-73
2024/01/27 08:12:17;;;;;;;;;;;;;;;;;;5097287;28;19943;-73
2024/01/27 08:14:43;;;;;;;;;;;;;;;;;;5097430;28;19908;-73
2024/01/27 08:17:09;;;;;;;;;;;;;;;;;;5096712;28;19916;-73
2024/01/27 08:19:35;;;;;;;;;;;;;;;;;;5097185;28;19916;-74
2024/01/27 08:22:01;;;;;;;;;;;;;;;;;;5079011;28;20053;-74
2024/01/27 08:24:27;;;;;;;;;;;;;;;;;;5096819;28;19912;-74
2024/01/27 08:26:53;;;;;;;;;;;;;;;;;;5097489;28;19926;-73
2024/01/27 08:29:19;;;;;;;;;;;;;;;;;;5078812;28;19974;-74
2024/01/27 08:31:45;;;;;;;;;;;;;;;;;;5096548;28;19909;-74
2024/01/27 08:34:12;;;;;;;;;;;;;;;;;;5096936;28;19915;-74
2024/01/27 08:36:38;;;;;;;;;;;;;;;;;;5096483;28;19912;-73
2024/01/27 08:39:07;;;;;;;;;;;;;;;;;;5096878;28;19923;-73
2024/01/27 08:41:33;;;;;;;;;;;;;;;;;;5096802;28;19935;-74
2024/01/27 08:43:59;;;;;;;;;;;;;;;;;;5096325;28;19915;-73
2024/01/27 08:46:25;;;;;;;;;;;;;;;;;;5096641;28;19908;-73
2024/01/27 08:48:50;;;;;;;;;;;;;;;;;;5096603;28;19960;-73
2024/01/27 08:51:17;;;;;;;;;;;;;;;;;;5096115;28;19912;-73
2024/01/27 08:53:48;;;;;;;;;;;;;;;;;;5096524;28;19963;-73
2024/01/27 08:56:14;;;;;;;;;;;;;;;;;;5097051;28;20046;-73
2024/01/27 08:58:40;;;;;;;;;;;;;;;;;;5095936;28;20014;-73
2024/01/27 09:01:08;;;;;;;;;;;;;;;;;;5078194;28;19919;-73
2024/01/27 09:03:34;;;;;;;;;;;;;;;;;;5096725;28;19923;-73
2024/01/27 09:06:00;;;;;;;;;;;;;;;;;;5096190;28;19912;-73
2024/01/27 09:08:26;;;;;;;;;;;;;;;;;;5096249;28;19918;-73
2024/01/27 09:10:52;;;;;;;;;;;;;;;;;;5095692;28;19912;-73
2024/01/27 09:13:18;;;;;;;;;;;;;;;;;;5095766;28;19912;-73
2024/01/27 09:15:44;;;;;;;;;;;;;;;;;;5077972;28;19908;-73
2024/01/27 09:18:10;;;;;;;;;;;;;;;;;;5095924;28;20372;-73
2024/01/27 09:20:36;;;;;;;;;;;;;;;;;;5095573;28;20360;-73
2024/01/27 09:23:02;;;;;;;;;;;;;;;;;;5095961;28;19908;-74
2024/01/27 09:25:29;;;;;;;;;;;;;;;;;;5095894;28;19970;-74
2024/01/27 09:27:56;;;;;;;;;;;;;;;;;;5095345;28;19908;-74
2024/01/27 09:30:22;;;;;;;;;;;;;;;;;;5078035;28;19977;-74
2024/01/27 09:32:48;;;;;;;;;;;;;;;;;;5096265;28;20341;-74
2024/01/27 09:35:14;;;;;;;;;;;;;;;;;;5095336;28;20268;-74
2024/01/27 09:37:40;;;;;;;;;;;;;;;;;;5077407;28;20025;-74
2024/01/27 09:40:06;;;;;;;;;;;;;;;;;;5095220;28;19916;-74
2024/01/27 09:42:32;;;;;;;;;;;;;;;;;;5095539;28;20429;-74
2024/01/27 09:44:58;;;;;;;;;;;;;;;;;;5096001;28;20264;-74
2024/01/27 09:47:24;;;;;;;;;;;;;;;;;;5095066;28;19908;-74
2024/01/27 09:49:51;;;;;;;;;;;;;;;;;;5095417;28;19908;-74
2024/01/27 09:52:17;;;;;;;;;;;;;;;;;;5095257;28;19912;-73
2024/01/27 09:54:43;;;;;;;;;;;;;;;;;;5094936;28;19908;-73
2024/01/27 09:57:08;;;;;;;;;;;;;;;;;;5095267;28;20007;-73
2024/01/27 09:59:34;;;;;;;;;;;;;;;;;;5076979;28;19916;-74
2024/01/27 10:02:00;;;;;;;;;;;;;;;;;;5094742;28;19908;-74
2024/01/27 10:04:26;;;;;;;;;;;;;;;;;;5095196;28;19912;-74
2024/01/27 10:06:53;;;;;;;;;;;;;;;;;;5076923;28;19927;-74
2024/01/27 10:09:19;;;;;;;;;;;;;;;;;;5094661;28;19916;-74
2024/01/27 10:11:45;;;;;;;;;;;;;;;;;;5094852;28;20318;-74
2024/01/27 10:14:11;;;;;;;;;;;;;;;;;;5095197;28;19908;-74
2024/01/27 10:16:37;;;;;;;;;;;;;;;;;;5094520;28;19908;-74
2024/01/27 10:19:03;;;;;;;;;;;;;;;;;;5094612;28;20052;-74
2024/01/27 10:21:29;;;;;;;;;;;;;;;;;;5094843;28;19908;-74
2024/01/27 10:23:55;;;;;;;;;;;;;;;;;;5093732;28;19912;-74
2024/01/27 10:26:21;;;;;;;;;;;;;;;;;;5094726;28;19908;-75
2024/01/27 10:28:49;;;;;;;;;;;;;;;;;;5094734;28;19958;-74
2024/01/27 10:31:14;;;;;;;;;;;;;;;;;;5094238;28;19908;-74
2024/01/27 10:33:40;;;;;;;;;;;;;;;;;;5094680;28;20368;-75
2024/01/27 10:36:06;;;;;;;;;;;;;;;;;;5076371;28;20348;-74
2024/01/27 10:38:32;;;;;;;;;;;;;;;;;;5094096;28;19916;-73
2024/01/27 10:40:58;;;;;;;;;;;;;;;;;;5094541;28;19915;-74
2024/01/27 10:43:24;;;;;;;;;;;;;;;;;;5094002;28;19912;-74
2024/01/27 10:45:50;;;;;;;;;;;;;;;;;;5076264;28;19915;-74
2024/01/27 10:48:16;;;;;;;;;;;;;;;;;;5094660;28;20363;-74
2024/01/27 10:50:42;;;;;;;;;;;;;;;;;;5093967;28;20299;-74
2024/01/27 10:53:08;;;;;;;;;;;;;;;;;;5094631;28;19908;-74
2024/01/27 10:55:37;;;;;;;;;;;;;;;;;;5094217;28;19909;-74
2024/01/27 10:58:03;;;;;;;;;;;;;;;;;;5093690;28;19961;-73
2024/01/27 11:00:30;;;;;;;;;;;;;;;;;;5094481;28;20318;-74
2024/01/27 11:02:55;;;;;;;;;;;;;;;;;;5094054;28;19908;-74
2024/01/27 11:05:21;;;;;;;;;;;;;;;;;;5093711;28;19908;-74
2024/01/27 11:07:49;;;;;;;;;;;;;;;;;;5094052;28;19914;-74
2024/01/27 11:10:14;;;;;;;;;;;;;;;;;;5094283;28;19908;-74
2024/01/27 11:12:40;;;;;;;;;;;;;;;;;;5093609;28;20269;-74
2024/01/27 11:15:06;;;;;;;;;;;;;;;;;;5075853;28;20015;-74
2024/01/27 11:17:32;;;;;;;;;;;;;;;;;;5093720;28;19920;-74
2024/01/27 11:19:59;;;;;;;;;;;;;;;;;;5075465;28;20007;-74
2024/01/27 11:22:26;;;;;;;;;;;;;;;;;;5093997;28;20007;-74
2024/01/27 11:24:52;;;;;;;;;;;;;;;;;;5093844;28;20376;-74
2024/01/27 11:27:18;;;;;;;;;;;;;;;;;;5093526;28;19947;-74
2024/01/27 11:29:43;;;;;;;;;;;;;;;;;;5094101;28;19908;-74
2024/01/27 11:32:09;;;;;;;;;;;;;;;;;;5093862;28;20382;-74
2024/01/27 11:34:35;;;;;;;;;;;;;;;;;;5095215;28;20276;-74
2024/01/27 11:37:03;;;;;;;;;;;;;;;;;;5097936;28;19909;-74
2024/01/27 11:39:29;;;;;;;;;;;;;;;;;;5079480;28;19916;-75
2024/01/27 11:41:55;;;;;;;;;;;;;;;;;;5079734;28;19912;-74
2024/01/27 11:44:22;;;;;;;;;;;;;;;;;;5097817;28;19908;-74
2024/01/27 11:46:48;;;;;;;;;;;;;;;;;;5097391;28;20332;-75
2024/01/27 11:49:13;;;;;;;;;;;;;;;;;;5079766;28;19915;-73
2024/01/27 11:52:38;;;;;;;;;;;;;;;;;;5091418;27;19912;-74
2024/01/27 11:55:49;;;;;;;;;;;;;;;;;;5111353;27;19916;-75
2024/01/27 11:58:14;;;;;;;;;;;;;;;;;;5111615;28;19912;-74
2024/01/27 12:00:40;;;;;;;;;;;;;;;;;;5111503;28;19934;-74
2024/01/27 12:07:10;;;;;;;;;;;;;;;;;;5091425;27;19922;-73
2024/01/27 12:11:25;;;;;;;;;;;;;;;;;;5091519;27;20299;-74
2024/01/27 12:13:51;;;;;;;;;;;;;;;;;;5091363;28;20011;-74
2024/01/27 12:16:17;;;;;;;;;;;;;;;;;;5090922;28;19912;-73
2024/01/27 12:19:49;;;;;;;;;;;;;;;;;;5091599;27;19916;-74
2024/01/27 12:22:15;;;;;;;;;;;;;;;;;;5091188;28;19948;-75
2024/01/27 12:26:57;;;;;;;;;;;;;;;;;;5174251;27;20334;-73
2024/01/27 12:32:12;;;;;;;;;;;;;;;;;;5091306;27;19913;-74
2024/01/27 12:37:18;;;;;;;;;;;;;;;;;;5091307;27;19923;-74
2024/01/27 12:39:44;;;;;;;;;;;;;;;;;;5090026;28;19995;-74
2024/01/27 12:42:10;;;;;;;;;;;;;;;;;;5091332;28;19954;-74
2024/01/27 12:44:36;;;;;;;;;;;;;;;;;;5090871;28;19916;-75
2024/01/27 12:48:19;;;;;;;;;;;;;;;;;;5092191;27;19917;-74
2024/01/27 12:51:45;;;;;;;;;;;;;;;;;;5091142;27;20284;-73
2024/01/27 12:54:11;;;;;;;;;;;;;;;;;;5091959;28;20319;-73
2024/01/27 12:56:37;;;;;;;;;;;;;;;;;;5091285;28;19954;-74
2024/01/27 12:59:05;;;;;;;;;;;;;;;;;;5090849;28;19912;-73
2024/01/27 13:01:31;;;;;;;;;;;;;;;;;;5091169;28;20373;-74
2024/01/27 13:03:57;;;;;;;;;;;;;;;;;;5090765;28;19921;-73
2024/01/27 13:06:23;;;;;;;;;;;;;;;;;;5091088;28;19908;-74
2024/01/27 13:08:49;;;;;;;;;;;;;;;;;;5091079;28;20386;-73
2024/01/27 13:11:15;;;;;;;;;;;;;;;;;;5089235;28;19916;-73
2024/01/27 13:13:41;;;;;;;;;;;;;;;;;;5090935;28;19916;-73
2024/01/27 13:16:07;;;;;;;;;;;;;;;;;;5090888;28;19908;-73
2024/01/27 13:18:33;;;;;;;;;;;;;;;;;;5090545;28;19954;-75
2024/01/27 13:20:59;;;;;;;;;;;;;;;;;;5090931;28;19915;-74
2024/01/27 13:23:25;;;;;;;;;;;;;;;;;;5089630;28;19916;-73
2024/01/27 13:25:51;;;;;;;;;;;;;;;;;;5090532;28;19922;-73
2024/01/27 13:28:17;;;;;;;;;;;;;;;;;;5090646;28;19909;-73
2024/01/27 13:30:43;;;;;;;;;;;;;;;;;;5090590;28;20430;-74
2024/01/27 13:33:09;;;;;;;;;;;;;;;;;;5088978;28;19915;-73
2024/01/27 13:35:35;;;;;;;;;;;;;;;;;;5089193;28;19958;-73
2024/01/27 13:38:01;;;;;;;;;;;;;;;;;;5090406;28;19952;-73
2024/01/27 13:40:27;;;;;;;;;;;;;;;;;;5090011;28;19908;-73
2024/01/27 13:42:53;;;;;;;;;;;;;;;;;;5090393;28;19915;-75
2024/01/27 13:47:09;;;;;;;;;;;;;;;;;;5152768;27;20002;-75
2024/01/27 13:51:07;;;;;;;;;;;;;;;;;;5092284;27;19916;-74
2024/01/27 13:53:33;;;;;;;;;;;;;;;;;;5091034;28;19918;-74
2024/01/27 13:56:00;;;;;;;;;;;;;;;;;;5091381;28;19912;-75
2024/01/27 13:58:26;;;;;;;;;;;;;;;;;;5091203;28;19920;-75
2024/01/27 14:00:52;;;;;;;;;;;;;;;;;;5091960;28;19912;-75
2024/01/27 14:03:18;;;;;;;;;;;;;;;;;;5091884;28;19953;-72
2024/01/27 14:06:46;;;;;;;;;;;;;;;;;;5091891;27;19918;-74
2024/01/27 14:09:13;;;;;;;;;;;;;;;;;;5091139;28;19934;-73
2024/01/27 14:11:39;;;;;;;;;;;;;;;;;;5091310;28;19958;-74
2024/01/27 14:16:22;;;;;;;;;;;;;;;;;;5050931;28;19913;-73
2024/01/27 14:18:48;;;;;;;;;;;;;;;;;;5051163;28;19919;-73
2024/01/27 14:21:14;;;;;;;;;;;;;;;;;;5050913;28;19909;-73
2024/01/27 14:23:40;;;;;;;;;;;;;;;;;;5051161;28;19909;-74
2024/01/27 14:26:14;;;;;;;;;;;;;;;;;;5050954;28;20032;-73
2024/01/27 14:28:40;;;;;;;;;;;;;;;;;;5050899;28;20344;-74
2024/01/27 14:32:19;;;;;;;;;;;;;;;;;;5091586;27;19917;-74
2024/01/27 14:34:45;;;;;;;;;;;;;;;;;;5091466;28;20452;-74
2024/01/27 14:37:13;;;;;;;;;;;;;;;;;;5089613;28;19944;-74
2024/01/27 14:39:42;;;;;;;;;;;;;;;;;;5091645;28;19920;-74
2024/01/27 14:42:08;;;;;;;;;;;;;;;;;;5091872;28;19913;-74
2024/01/27 14:47:05;;;;;;;;;;;;;;;;;;5051429;28;19927;-76
2024/01/27 14:49:31;;;;;;;;;;;;;;;;;;5050846;28;20012;-75
2024/01/27 14:56:29;;;;;;;;;;;;;;;;;;5091205;27;19923;-73
2024/01/27 14:58:56;;;;;;;;;;;;;;;;;;5091324;28;19912;-74
2024/01/27 15:05:29;;;;;;;;;;;;;;;;;;5091145;27;20311;-76
2024/01/27 15:10:24;;;;;;;;;;;;;;;;;;5051446;28;19924;-75
2024/01/27 15:13:48;;;;;;;;;;;;;;;;;;5174056;27;20009;-74
2024/01/27 15:16:14;;;;;;;;;;;;;;;;;;5174009;27;19915;-74
2024/01/27 15:18:43;;;;;;;;;;;;;;;;;;5173455;27;19907;-74
2024/01/27 15:21:09;;;;;;;;;;;;;;;;;;5173658;27;19911;-73
2024/01/27 15:23:36;;;;;;;;;;;;;;;;;;5173671;27;19914;-73
2024/01/27 15:26:03;;;;;;;;;;;;;;;;;;5173202;27;19959;-74
2024/01/27 15:28:29;;;;;;;;;;;;;;;;;;5173792;27;19951;-74
2024/01/27 15:30:58;;;;;;;;;;;;;;;;;;5173521;27;20367;-75
2024/01/27 15:33:24;;;;;;;;;;;;;;;;;;5154395;27;19915;-74
2024/01/27 15:35:50;;;;;;;;;;;;;;;;;;5173314;27;19930;-74
2024/01/27 15:38:15;;;;;;;;;;;;;;;;;;5173356;27;19994;-75
2024/01/27 15:40:41;;;;;;;;;;;;;;;;;;5172916;27;19907;-74
2024/01/27 15:43:07;;;;;;;;;;;;;;;;;;5154549;27;19907;-74
2024/01/27 15:45:33;;;;;;;;;;;;;;;;;;5173293;27;20337;-74
2024/01/27 15:47:59;;;;;;;;;;;;;;;;;;5172947;27;19907;-75
2024/01/27 15:50:27;;;;;;;;;;;;;;;;;;5173178;27;19967;-74
2024/01/27 15:52:53;;;;;;;;;;;;;;;;;;5153942;27;19922;-75
2024/01/27 15:55:19;;;;;;;;;;;;;;;;;;5172965;27;20395;-76
2024/01/27 15:57:45;;;;;;;;;;;;;;;;;;5154532;27;19980;-75
2024/01/27 16:00:11;;;;;;;;;;;;;;;;;;5154009;27;19914;-75
2024/01/27 16:02:38;;;;;;;;;;;;;;;;;;5173003;27;19911;-75
2024/01/27 16:05:04;;;;;;;;;;;;;;;;;;5154173;27;19907;-74
2024/01/27 16:07:30;;;;;;;;;;;;;;;;;;5172724;27;19907;-74
2024/01/27 16:10:01;;;;;;;;;;;;;;;;;;5172791;27;19911;-74
2024/01/27 16:12:27;;;;;;;;;;;;;;;;;;5172432;27;19925;-74
2024/01/27 16:14:53;;;;;;;;;;;;;;;;;;5172268;27;19990;-74
2024/01/27 16:17:19;;;;;;;;;;;;;;;;;;5172566;27;19960;-73
2024/01/27 16:19:45;;;;;;;;;;;;;;;;;;5172559;27;19907;-74
2024/01/27 16:22:11;;;;;;;;;;;;;;;;;;5153575;27;19911;-75
2024/01/27 16:24:37;;;;;;;;;;;;;;;;;;5161396;27;20367;-73
2024/01/27 16:27:03;;;;;;;;;;;;;;;;;;5139822;27;19907;-73
2024/01/27 16:29:29;;;;;;;;;;;;;;;;;;5158019;27;20010;-73
2024/01/27 16:31:55;;;;;;;;;;;;;;;;;;5158276;27;19918;-74
2024/01/27 16:34:21;;;;;;;;;;;;;;;;;;5158689;27;19907;-75
2024/01/27 16:36:47;;;;;;;;;;;;;;;;;;5157933;27;19945;-75
2024/01/27 16:39:14;;;;;;;;;;;;;;;;;;5158372;27;20286;-75
2024/01/27 16:41:40;;;;;;;;;;;;;;;;;;5158207;27;20274;-74
2024/01/27 16:44:06;;;;;;;;;;;;;;;;;;5157831;27;19911;-74
2024/01/27 16:46:31;;;;;;;;;;;;;;;;;;5139634;27;20324;-74
2024/01/27 16:48:57;;;;;;;;;;;;;;;;;;5139315;27;20290;-74
2024/01/27 16:51:23;;;;;;;;;;;;;;;;;;5157922;27;19907;-74
2024/01/27 16:53:49;;;;;;;;;;;;;;;;;;5157945;27;19917;-74
2024/01/27 16:56:15;;;;;;;;;;;;;;;;;;5157762;27;19977;-75
2024/01/27 16:58:46;;;;;;;;;;;;;;;;;;5157858;27;20358;-75
2024/01/27 17:01:12;;;;;;;;;;;;;;;;;;5157895;27;19908;-75
2024/01/27 17:03:38;;;;;;;;;;;;;;;;;;5157534;27;19930;-74
2024/01/27 17:06:06;;;;;;;;;;;;;;;;;;5157744;27;19912;-73
2024/01/27 17:08:32;;;;;;;;;;;;;;;;;;5157663;27;19914;-74
2024/01/27 17:10:58;;;;;;;;;;;;;;;;;;5157209;27;19998;-75
2024/01/27 17:13:24;;;;;;;;;;;;;;;;;;5138731;27;20418;-74
2024/01/27 17:15:52;;;;;;;;;;;;;;;;;;5157543;27;19907;-74
2024/01/27 17:18:18;;;;;;;;;;;;;;;;;;5157192;27;19907;-74